PDT,Max TemperatureF,Mean TemperatureF,Min TemperatureF,Max Dew PointF,MeanDew PointF,Min DewpointF,Max Humidity, Mean Humidity, Min Humidity, Max Sea Level PressureIn, Mean Sea Level PressureIn, Min Sea Level PressureIn, Max VisibilityMiles, Mean VisibilityMiles, Min VisibilityMiles, Max Wind SpeedMPH, Mean Wind SpeedMPH, Max Gust SpeedMPH,PrecipitationIn, CloudCover, Events, WindDirDegrees
2013-3-1,74,56,37,49,42,36,100,68,35,30.43,30.36,30.22,10,5,0,10,3,13,0.00,1,Fog,204
2013-3-2,71,58,44,51,47,42,93,70,47,30.22,30.13,30.05,10,10,9,10,3,13,0.00,5,,182
2013-3-3,68,57,46,50,46,43,93,68,42,30.08,30.05,29.99,10,9,5,16,5,18,0.00,6,,152
2013-3-4,58,48,38,45,43,36,93,80,66,30.14,30.09,30.04,10,7,2,10,3,12,0.00,6,,159
2013-3-5,55,45,34,47,39,33,100,82,64,30.07,29.97,29.75,10,6,0,28,8,37,0.37,8,Fog-Rain,169
2013-3-6,56,46,36,46,40,35,92,71,50,30.04,29.94,29.78,10,9,2,25,7,40,0.52,5,Rain,225
2013-3-7,56,45,34,39,35,31,100,69,38,30.00,29.94,29.86,10,8,1,10,4,16,0.00,5,,336
2013-3-8,65,50,34,37,35,31,92,60,28,30.01,29.88,29.82,10,10,10,17,6,23,0.00,1,,316
2013-3-9,72,53,34,43,37,29,92,57,22,30.29,30.21,30.04,10,10,10,10,3,14,0.00,0,,254
2013-3-10,72,54,35,44,38,27,96,58,20,30.32,30.27,30.21,10,10,5,12,4,14,0.00,1,,214
2013-3-11,72,53,34,48,39,33,100,67,34,30.26,30.22,30.09,10,4,0,13,2,15,0.00,2,Fog,165
2013-3-12,74,57,39,52,43,39,100,71,41,30.14,30.11,30.05,10,4,0,12,3,14,0.00,3,Fog,159
2013-3-13,80,60,40,55,44,39,100,65,29,30.16,30.12,30.04,10,4,0,9,1,12,0.00,2,Fog,183
2013-3-14,73,58,43,54,46,42,93,70,46,30.14,30.10,30.07,10,8,1,8,2,10,0.00,3,Fog,160
2013-3-15,75,58,40,53,44,39,96,69,42,30.11,30.07,30.00,10,9,2,17,4,22,0.00,3,,224
2013-3-16,77,57,37,47,39,31,100,60,20,30.11,30.05,30.00,10,6,0,25,7,32,0.00,2,Fog,292
2013-3-17,70,57,44,44,39,35,83,57,30,30.12,30.07,30.02,10,10,10,17,6,22,0.00,2,,340
2013-3-18,67,52,37,45,40,36,92,66,40,30.10,30.06,29.99,10,8,1,10,3,15,0.00,4,,167
2013-3-19,59,50,41,48,44,39,93,75,57,30.11,30.07,30.04,10,10,6,8,2,9,0.13,6,Rain,275
2013-3-20,61,53,45,54,47,43,100,86,72,30.14,30.08,30.04,10,6,2,16,4,22,0.41,7,Rain,278
2013-3-21,67,52,36,42,39,35,92,63,34,30.12,30.07,29.99,10,10,10,13,6,17,0.00,0,,351
2013-3-22,68,54,40,37,33,26,71,48,24,30.11,30.06,30.01,10,10,7,13,9,17,0.00,0,,354
2013-3-23,69,53,36,41,36,31,85,57,28,30.12,30.07,30.01,10,10,9,10,5,14,0.00,1,,3
2013-3-24,70,54,37,46,41,36,93,65,37,30.08,30.02,29.94,10,9,1,13,4,16,0.00,1,Fog,175
2013-3-25,61,50,39,45,42,37,100,77,53,30.03,29.97,29.91,10,5,0,13,3,15,T,5,Fog,147
2013-3-26,66,52,38,47,42,37,100,76,52,29.99,29.96,29.91,10,6,0,13,4,16,0.00,3,Fog,170
2013-3-27,61,52,43,53,47,42,93,78,62,30.01,29.96,29.93,10,10,5,12,3,15,0.01,8,Rain,177
2013-3-28,63,56,48,54,49,46,93,80,67,30.07,30.03,29.99,10,10,6,9,2,13,0.06,6,Rain,273
2013-3-29,76,62,47,55,49,46,100,72,43,30.09,30.06,30.00,10,5,0,14,4,18,0.00,5,Fog,188
2013-3-30,67,59,50,54,50,48,93,78,63,30.07,30.03,29.98,10,9,6,15,3,20,0.09,6,Rain,177
2013-3-31,61,55,49,54,52,48,100,89,78,30.05,30.02,29.99,10,6,0,13,2,16,0.96,7,Fog-Rain-Thunderstorm,207